Wagga Wagga, Australia
Current Conditions -  °F | °C
As of 5:00 PM on Saturday 25 Oct 2014 (Local Time) from YSWG Reporting Station
Clear Clear  
Wind Chill: 91°   Ceiling: Unl
Heat Index: 91°   Visibility: 6mi
Dew Point: 39°   Wind: 6mph
Humidity: 16%   Direction: 10°N
Pressure: 29.83"   Gusts: NA
Location:  35.11°S, 147.37°E
Report Text: YSWG 250600Z 01005KT 340V040 CAVOK 33/04 Q1010
Loading
Personal Weather Stations






























Interactive Weather Map
Tropical Storm Tracking
New forecast layout! Learn more

10-Day Weather Forecast

Advertisements
Track Severe Weather on mobile